createdAt,value
2023-02-06T00:03:30.928Z,84.24
2023-02-06T00:08:32.658Z,84.78
2023-02-06T00:13:35.562Z,85.27
2023-02-06T00:18:37.201Z,85.14
2023-02-06T00:23:38.852Z,85.43
2023-02-06T00:28:40.542Z,85.00
2023-02-06T00:33:42.516Z,84.97
2023-02-06T00:38:44.183Z,85.85
2023-02-06T00:43:45.818Z,86.06
2023-02-06T00:48:47.459Z,86.07
2023-02-06T00:53:51.129Z,86.11
2023-02-06T00:58:54.169Z,85.43
2023-02-06T01:03:55.732Z,85.77
2023-02-06T01:08:57.364Z,86.34
2023-02-06T01:14:00.601Z,85.58
2023-02-06T01:19:02.237Z,85.68
2023-02-06T01:24:04.049Z,85.37
2023-02-06T01:29:05.581Z,85.06
2023-02-06T01:34:08.116Z,85.71
2023-02-06T01:39:10.712Z,85.69
2023-02-06T01:44:19.160Z,84.97
2023-02-06T01:49:35.099Z,84.23
2023-02-06T01:54:37.199Z,84.21
2023-02-06T01:59:41.299Z,84.11
2023-02-06T02:04:43.384Z,83.59
2023-02-06T02:09:45.199Z,82.69
2023-02-06T02:14:48.506Z,81.74
2023-02-06T02:20:15.197Z,82.35
2023-02-06T02:25:22.590Z,82.91
2023-02-06T02:30:55.518Z,82.92
2023-02-06T02:36:03.402Z,82.32
2023-02-06T02:41:24.121Z,82.69
2023-02-06T02:46:33.598Z,83.73
2023-02-06T02:51:35.980Z,83.97
2023-02-06T02:56:38.070Z,83.66
2023-02-06T03:01:44.400Z,83.55
2023-02-06T03:06:55.328Z,83.63
2023-02-06T03:12:19.082Z,84.04
2023-02-06T03:17:31.442Z,84.54
2023-02-06T03:22:34.669Z,84.69
2023-02-06T03:27:39.131Z,85.28
2023-02-06T03:32:42.958Z,84.74
2023-02-06T03:37:45.090Z,83.70
2023-02-06T03:42:53.564Z,83.88
2023-02-06T03:47:57.404Z,83.96
2023-02-06T03:53:00.223Z,84.43
2023-02-06T03:58:04.835Z,84.84
2023-02-06T04:03:07.320Z,84.78
2023-02-06T04:08:08.986Z,85.04
2023-02-06T04:13:10.582Z,85.67
2023-02-06T04:18:12.232Z,86.25
2023-02-06T04:23:13.719Z,86.28
2023-02-06T04:28:15.558Z,85.94
2023-02-06T04:33:17.336Z,85.50
2023-02-06T04:38:19.013Z,85.99
2023-02-06T04:43:20.656Z,86.22
2023-02-06T04:48:22.149Z,86.40
2023-02-06T04:53:23.754Z,85.97
2023-02-06T04:58:25.275Z,85.35
2023-02-06T05:03:29.494Z,85.02
2023-02-06T05:08:31.466Z,85.04
2023-02-06T05:13:34.031Z,85.04
2023-02-06T05:18:36.068Z,84.50
2023-02-06T05:23:37.804Z,84.91
2023-02-06T05:28:39.438Z,85.14
2023-02-06T05:33:41.234Z,85.29
2023-02-06T05:38:43.043Z,85.84
2023-02-06T05:43:44.697Z,85.36
2023-02-06T05:48:46.355Z,85.35
2023-02-06T05:53:48.034Z,85.66
2023-02-06T05:58:49.958Z,84.93
2023-02-06T06:03:51.956Z,85.48
2023-02-06T06:08:53.666Z,84.93
2023-02-06T06:13:55.324Z,84.87
2023-02-06T06:18:56.961Z,84.74
2023-02-06T06:23:58.603Z,84.25
2023-02-06T06:29:00.245Z,84.57
2023-02-06T06:34:01.906Z,83.73
2023-02-06T06:39:03.708Z,84.04
2023-02-06T06:44:05.379Z,84.02
2023-02-06T06:49:07.033Z,83.80
2023-02-06T06:54:08.651Z,84.46
2023-02-06T06:59:11.067Z,84.32
2023-02-06T07:04:12.730Z,85.02
2023-02-06T07:09:14.394Z,84.98
2023-02-06T07:14:16.561Z,84.48
2023-02-06T07:19:18.191Z,84.85
2023-02-06T07:24:19.881Z,84.42
2023-02-06T07:29:21.481Z,84.73
2023-02-06T07:34:23.128Z,84.68
2023-02-06T07:39:24.749Z,84.70
2023-02-06T07:44:26.356Z,84.81
2023-02-06T07:49:28.031Z,84.61
2023-02-06T07:54:29.689Z,84.44
2023-02-06T07:59:31.976Z,83.48
2023-02-06T08:04:35.659Z,82.43
2023-02-06T08:09:37.337Z,81.59
2023-02-06T08:14:39.154Z,81.72
2023-02-06T08:19:40.804Z,81.08
2023-02-06T08:24:42.525Z,80.71
2023-02-06T08:29:44.278Z,82.33
2023-02-06T08:34:45.939Z,82.33
2023-02-06T08:39:47.540Z,82.71
2023-02-06T08:44:49.212Z,82.64
2023-02-06T08:49:51.369Z,82.81
2023-02-06T08:54:52.975Z,82.37
2023-02-06T08:59:55.050Z,81.49
2023-02-06T09:04:56.665Z,81.29
2023-02-06T09:09:58.297Z,81.17
2023-02-06T09:15:00.278Z,81.10
2023-02-06T09:20:02.335Z,81.48
2023-02-06T09:25:03.999Z,81.10
2023-02-06T09:30:06.162Z,80.05
2023-02-06T09:35:08.044Z,80.62
2023-02-06T09:40:11.047Z,80.95
2023-02-06T09:45:16.401Z,80.64
2023-02-06T09:50:27.178Z,81.09
2023-02-06T09:55:44.148Z,82.59
2023-02-06T10:00:54.911Z,82.41
2023-02-06T10:06:05.518Z,82.77
2023-02-06T10:11:16.276Z,83.55
2023-02-06T10:16:33.773Z,83.62
2023-02-06T10:21:36.927Z,83.94
2023-02-06T10:26:40.273Z,83.06
2023-02-06T10:32:00.017Z,83.11
2023-02-06T10:37:17.057Z,83.35
2023-02-06T10:42:24.583Z,85.33
2023-02-06T10:47:55.137Z,84.32
2023-02-06T10:53:00.693Z,84.57
2023-02-06T10:58:29.102Z,83.89
2023-02-06T11:03:31.987Z,84.81
2023-02-06T11:08:44.608Z,83.40
2023-02-06T11:13:49.021Z,84.66
2023-02-06T11:18:51.561Z,85.27
2023-02-06T11:24:09.244Z,85.47
2023-02-06T11:29:20.049Z,85.82
2023-02-06T11:34:31.683Z,86.30
2023-02-06T11:39:36.425Z,85.88
2023-02-06T11:44:40.854Z,85.80
2023-02-06T11:49:42.502Z,85.88
2023-02-06T11:54:54.351Z,85.79
2023-02-06T11:59:58.374Z,85.38
2023-02-06T12:05:10.967Z,84.70
2023-02-06T12:10:20.663Z,84.70
2023-02-06T12:15:45.318Z,84.67
2023-02-06T12:20:59.177Z,84.98
2023-02-06T12:26:04.453Z,85.01
2023-02-06T12:31:11.935Z,85.62
2023-02-06T12:36:20.840Z,86.48
2023-02-06T12:41:50.563Z,85.11
2023-02-06T12:46:57.763Z,84.46
2023-02-06T12:52:13.642Z,84.93
2023-02-06T12:57:24.158Z,85.30
2023-02-06T13:02:50.038Z,85.39
2023-02-06T13:07:52.842Z,86.79
2023-02-06T13:12:59.681Z,85.96
2023-02-06T13:18:01.309Z,85.38
2023-02-06T13:23:23.950Z,85.10
2023-02-06T13:28:25.695Z,85.65
2023-02-06T13:33:38.578Z,84.23
2023-02-06T13:38:42.361Z,82.78
2023-02-06T13:44:27.413Z,82.12
2023-02-06T13:49:56.743Z,81.10
2023-02-06T14:01:46.571Z,82.01
2023-02-06T14:06:56.679Z,83.31
2023-02-06T14:12:29.760Z,79.63
2023-02-06T14:17:46.514Z,79.95
2023-02-06T14:23:05.876Z,80.79
2023-02-06T14:28:34.846Z,80.86
2023-02-06T14:33:57.692Z,81.03
2023-02-06T14:39:30.281Z,82.03
2023-02-06T14:44:31.919Z,83.15
2023-02-06T14:49:35.751Z,83.48
2023-02-06T14:54:38.666Z,83.35
2023-02-06T14:59:57.360Z,83.97
2023-02-06T15:05:00.247Z,82.78
2023-02-06T15:10:15.671Z,83.78
2023-02-06T15:15:25.338Z,83.48
2023-02-06T15:20:42.196Z,83.81
2023-02-06T15:25:59.303Z,84.65
2023-02-06T15:31:01.938Z,85.72
2023-02-06T15:36:04.352Z,85.66
2023-02-06T15:41:07.194Z,86.04
2023-02-06T15:46:08.956Z,86.10
2023-02-06T15:51:20.382Z,85.54
2023-02-06T15:56:25.788Z,83.71
2023-02-06T16:01:30.978Z,82.37
2023-02-06T16:06:32.639Z,79.07
2023-02-06T16:11:47.385Z,77.52
2023-02-06T16:16:57.102Z,76.60
2023-02-06T16:22:12.834Z,75.40
2023-02-06T16:27:21.856Z,74.87
2023-02-06T16:32:29.378Z,75.50
2023-02-06T16:37:31.770Z,75.26
2023-02-06T16:42:36.126Z,76.35
2023-02-06T16:47:37.897Z,76.36
2023-02-06T16:52:42.094Z,76.75
2023-02-06T16:57:45.082Z,76.81
2023-02-06T17:02:47.885Z,77.05
2023-02-06T17:07:50.703Z,77.83
2023-02-06T17:12:52.664Z,79.18
2023-02-06T17:17:54.893Z,78.79
2023-02-06T17:22:56.636Z,80.10
2023-02-06T17:27:58.643Z,81.61
2023-02-06T17:33:00.316Z,81.99
2023-02-06T17:38:02.238Z,81.35
2023-02-06T17:43:04.762Z,81.57
2023-02-06T17:48:07.010Z,82.51
2023-02-06T17:53:12.476Z,82.08
2023-02-06T17:58:14.250Z,81.47
2023-02-06T18:03:18.275Z,80.81
2023-02-06T18:08:20.300Z,81.27
2023-02-06T18:13:24.010Z,82.36
2023-02-06T18:18:26.293Z,82.94
2023-02-06T18:23:28.115Z,82.00
2023-02-06T18:28:29.804Z,81.44
2023-02-06T18:33:36.238Z,82.10
2023-02-06T18:38:37.850Z,83.70
2023-02-06T18:43:39.517Z,83.68
2023-02-06T18:48:41.206Z,86.50
2023-02-06T18:53:42.904Z,86.37
2023-02-06T18:58:44.562Z,86.19
2023-02-06T19:03:47.175Z,86.39
2023-02-06T19:08:49.031Z,86.57
2023-02-06T19:13:50.952Z,87.58
2023-02-06T19:18:52.616Z,88.60
2023-02-06T19:23:58.661Z,89.09
2023-02-06T19:29:00.487Z,89.34
2023-02-06T19:34:02.685Z,89.91
2023-02-06T19:39:07.216Z,89.75
2023-02-06T19:44:11.769Z,89.07
2023-02-06T19:49:13.433Z,89.25
2023-02-06T19:54:15.424Z,90.04
2023-02-06T19:59:23.590Z,90.21
2023-02-06T20:04:28.077Z,91.28
2023-02-06T20:09:30.649Z,91.14
2023-02-06T20:14:32.450Z,91.42
2023-02-06T20:19:34.419Z,90.43
2023-02-06T20:24:36.082Z,90.48
2023-02-06T20:29:38.484Z,92.06
2023-02-06T20:34:40.167Z,91.67
2023-02-06T20:39:41.830Z,90.76
2023-02-06T20:44:43.578Z,91.21
2023-02-06T20:49:45.215Z,91.78
2023-02-06T20:54:46.922Z,91.46
2023-02-06T20:59:49.122Z,92.54
2023-02-06T21:04:52.316Z,91.91
2023-02-06T21:09:54.071Z,91.15
2023-02-06T21:14:56.010Z,91.03
2023-02-06T21:19:57.694Z,90.42
2023-02-06T21:24:59.900Z,89.99
2023-02-06T21:30:01.572Z,90.29
2023-02-06T21:35:03.344Z,90.50
2023-02-06T21:40:05.656Z,90.70
2023-02-06T21:45:08.118Z,90.40
2023-02-06T21:50:09.772Z,90.69
2023-02-06T21:55:11.743Z,89.82
2023-02-06T22:00:13.936Z,89.80
2023-02-06T22:05:15.637Z,89.74
2023-02-06T22:10:17.586Z,89.47
2023-02-06T22:15:19.447Z,89.45
2023-02-06T22:20:21.069Z,89.18
2023-02-06T22:25:22.855Z,90.11
2023-02-06T22:30:24.442Z,89.82
2023-02-06T22:35:26.082Z,89.93
2023-02-06T22:40:27.780Z,90.25
2023-02-06T22:45:29.680Z,89.70
2023-02-06T22:50:31.330Z,89.40
2023-02-06T22:55:56.954Z,89.21
2023-02-06T23:01:05.091Z,89.38
2023-02-06T23:06:08.253Z,90.52
2023-02-06T23:11:10.936Z,90.38
2023-02-06T23:16:12.604Z,90.49
2023-02-06T23:21:14.859Z,90.32
2023-02-06T23:26:18.591Z,89.65
2023-02-06T23:31:20.236Z,89.46
2023-02-06T23:36:23.892Z,89.92
2023-02-06T23:41:27.304Z,89.79
2023-02-06T23:46:31.293Z,89.19
2023-02-06T23:51:33.102Z,88.96
2023-02-06T23:56:35.025Z,89.09
